Darstellungsparameter: Aktuell verwendete Einstellungen:
Skalierung der Graphiken ... ?
xyx+y,   Skalierungsfaktor:      Skalierung: Modus: x, Faktor: 1
Darstellungszeitraum ... ?
Vom - - bis: - -   Zeitraum: 20.04.2011 - 20.04.2011
Min/Max/Avg-Anzeige ... ?
Zeige MMA aktuell
Zeige MMA Monat
Zeige MMA alles
Zeige --A aktuell
Zeige --A Monat
Zeige --A alles
Keine MMA-Anzeige
MMA:
Minimum Maximum Average (ber die Originaldaten)
MMA-Basis: 20.04.2011 - 20.04.2011
Quicknavigation für Darstellung... ?
Tage:      1T, 2T, 3T, 5T -1T -2T -3T -5T +1T +2T +3T +5T
Wochen: 1W, 2W, 3W -1W -2W -3W +1W +2W +3W
Monate: 1M, 3M, 6M -1M -3M -6M +1M +3M +6M
Jahre:    1J, 3J, 5J, 10J -1J -3J -5J -10J +1J +3J +5J +10J
Nutze für die Darstellung ... ?
Originaldaten oder Mittelwerte auf ...
Stundenbasis Tagesbasis Wochenbasis
Monatsbasis Jahresbasis      Datenbasis: Original-Daten
Darstellen als:
Statistik (Auto) Statistik J:M      Darstellung:
Zur Graphik,    zurück zur Übersicht aller Sensoren.
 
Tabellarische Datenbersicht: ?
 
Sensor: Nr:Datum:Temp:Abs-Feuchte:Windchill:Wind:
Aussen-T/F 1 20-04-2011 00:01:04 8.1 C 5.33 g/m*3 8.1 C 0 km/h
2 20-04-2011 00:13:04 7.6 C 5.24 g/m*3 7.6 C 0 km/h
3 20-04-2011 00:25:04 7.3 C 5.21 g/m*3 7.3 C 0 km/h
4 20-04-2011 00:37:04 7.3 C 5.37 g/m*3 7.3 C 0 km/h
5 20-04-2011 00:49:04 7.1 C 5.3 g/m*3 7.1 C 0 km/h
6 20-04-2011 01:01:04 6.9 C 5.31 g/m*3 6.9 C 0 km/h
7 20-04-2011 01:13:04 6.6 C 5.28 g/m*3 6.6 C 0 km/h
8 20-04-2011 01:25:04 6.5 C 5.25 g/m*3 6.5 C 0 km/h
9 20-04-2011 01:37:04 6.4 C 5.36 g/m*3 6.4 C 0 km/h
10 20-04-2011 01:49:04 6.2 C 5.22 g/m*3 6.2 C 0 km/h
11 20-04-2011 02:01:04 6.1 C 5.26 g/m*3 6.1 C 0 km/h
12 20-04-2011 02:13:04 6 C 5.3 g/m*3 6 C 0 km/h
13 20-04-2011 02:25:04 5.8 C 5.3 g/m*3 5.8 C 0 km/h
14 20-04-2011 02:37:05 5.6 C 5.3 g/m*3 5.6 C 0 km/h
15 20-04-2011 02:49:05 5.2 C 5.23 g/m*3 5.2 C 0 km/h
16 20-04-2011 03:01:05 5 C 5.16 g/m*3 5 C 0 km/h
17 20-04-2011 03:13:05 4.8 C 5.3 g/m*3 4.8 C 0 km/h
18 20-04-2011 03:25:05 4.6 C 5.29 g/m*3 4.6 C 0 km/h
19 20-04-2011 03:37:05 4.6 C 5.43 g/m*3 4.6 C 0 km/h
20 20-04-2011 03:49:05 4.5 C 5.46 g/m*3 4.5 C 0 km/h
21 20-04-2011 04:01:05 4.4 C 5.42 g/m*3 4.4 C 0 km/h
22 20-04-2011 04:13:05 4.2 C 5.35 g/m*3 4.2 C 0 km/h
23 20-04-2011 04:25:05 4 C 5.28 g/m*3 4 C 0 km/h
24 20-04-2011 04:37:05 3.8 C 5.27 g/m*3 3.8 C 0 km/h
25 20-04-2011 04:49:05 3.7 C 5.3 g/m*3 3.7 C 0 km/h
Sensor: Nr:Datum:Temp:Abs-Feuchte:Windchill:Wind:
Aussen-T/F 26 20-04-2011 05:01:05 3.6 C 5.32 g/m*3 3.6 C 0 km/h
27 20-04-2011 05:13:05 3.6 C 5.32 g/m*3 3.6 C 0 km/h
28 20-04-2011 05:25:05 3.5 C 5.35 g/m*3 3.5 C 0 km/h
29 20-04-2011 05:37:05 3.4 C 5.31 g/m*3 3.4 C 0 km/h
30 20-04-2011 05:49:05 3.3 C 5.28 g/m*3 3.3 C 0 km/h
31 20-04-2011 06:01:05 3.2 C 5.24 g/m*3 3.2 C 0 km/h
32 20-04-2011 06:13:05 3 C 5.17 g/m*3 3 C 0 km/h
33 20-04-2011 06:25:05 3.1 C 5.27 g/m*3 3.1 C 0 km/h
34 20-04-2011 06:37:06 3 C 5.23 g/m*3 3 C 0 km/h
35 20-04-2011 06:49:06 3 C 5.23 g/m*3 3 C 0 km/h
36 20-04-2011 07:01:03 3 C 5.23 g/m*3 3 C 0 km/h
37 20-04-2011 07:13:03 3.2 C 5.3 g/m*3 3.2 C 0 km/h
38 20-04-2011 07:25:04 3.4 C 5.44 g/m*3 3.4 C 0 km/h
39 20-04-2011 07:37:03 3.6 C 5.51 g/m*3 3.6 C 0 km/h
40 20-04-2011 07:49:01 3.7 C 5.55 g/m*3 3.7 C 0 km/h
41 20-04-2011 08:01:02 4 C 5.66 g/m*3 4 C 0 km/h
42 20-04-2011 08:13:02 4.2 C 5.73 g/m*3 4.2 C 0 km/h
43 20-04-2011 08:25:02 4.6 C 5.89 g/m*3 4.6 C 0 km/h
44 20-04-2011 08:37:01 4.7 C 5.93 g/m*3 4.7 C 0 km/h
45 20-04-2011 08:49:02 5 C 5.98 g/m*3 5 C 0 km/h
46 20-04-2011 09:01:01 5.3 C 6.1 g/m*3 5.3 C 0 km/h
47 20-04-2011 09:13:01 5.6 C 6.22 g/m*3 5.6 C 0 km/h
48 20-04-2011 09:25:02 6 C 6.31 g/m*3 6 C 0 km/h
49 20-04-2011 09:37:01 6.5 C 6.52 g/m*3 6.5 C 0 km/h
50 20-04-2011 09:49:03 7 C 6.66 g/m*3 7 C 0 km/h
Sensor: Nr:Datum:Temp:Abs-Feuchte:Windchill:Wind:
Aussen-T/F 51 20-04-2011 10:01:02 7.6 C 6.85 g/m*3 7.6 C 0 km/h
52 20-04-2011 10:13:02 8.3 C 7 g/m*3 8.3 C 0 km/h
53 20-04-2011 10:25:02 8.8 C 7.05 g/m*3 8.8 C 0 km/h
54 20-04-2011 10:37:02 9.7 C 7.1 g/m*3 9.7 C 0 km/h
55 20-04-2011 10:49:02 10.3 C 7.09 g/m*3 10.3 C 0 km/h
56 20-04-2011 11:01:02 11.1 C 7.15 g/m*3 11.1 C 0 km/h
57 20-04-2011 11:13:02 11.8 C 7.05 g/m*3 11.8 C 0 km/h
58 20-04-2011 11:25:02 12.4 C 6.88 g/m*3 12.4 C 0 km/h
59 20-04-2011 11:37:01 13.4 C 6.86 g/m*3 13.4 C 0 km/h
60 20-04-2011 11:49:02 14 C 6.88 g/m*3 14 C 0 km/h
61 20-04-2011 12:01:01 14.9 C 7.14 g/m*3 14.9 C 0 km/h
62 20-04-2011 12:13:01 16.2 C 6.62 g/m*3 16.2 C 0 km/h
63 20-04-2011 12:25:02 17.8 C 6.22 g/m*3 17.8 C 0 km/h
64 20-04-2011 12:37:02 19.4 C 5.34 g/m*3 19.4 C 0 km/h
65 20-04-2011 12:49:02 19.3 C 3.81 g/m*3 19.3 C 0 km/h
66 20-04-2011 13:01:02 20 C 3.63 g/m*3 20 C 0 km/h
67 20-04-2011 13:13:02 21.1 C 3.69 g/m*3 21.1 C 0 km/h
68 20-04-2011 13:25:02 20.8 C 3.62 g/m*3 20.8 C 0 km/h
69 20-04-2011 13:37:02 21.8 C 3.84 g/m*3 21.8 C 0 km/h
70 20-04-2011 13:49:01 24.8 C 4.55 g/m*3 24.8 C 0 km/h
71 20-04-2011 14:01:02 27 C 5.15 g/m*3 27 C 0 km/h
72 20-04-2011 14:13:02 28.2 C 5.5 g/m*3 28.2 C 0 km/h
73 20-04-2011 14:25:01 28.3 C 5.53 g/m*3 28.3 C 0 km/h
74 20-04-2011 14:37:02 26.4 C 4.98 g/m*3 26.4 C 0 km/h
75 20-04-2011 14:49:02 24.8 C 4.55 g/m*3 24.8 C 0 km/h
Sensor: Nr:Datum:Temp:Abs-Feuchte:Windchill:Wind:
Aussen-T/F 76 20-04-2011 15:01:02 29.6 C 5.94 g/m*3 29.6 C 0 km/h
77 20-04-2011 15:13:02 30.1 C 6.1 g/m*3 30.1 C 0 km/h
78 20-04-2011 15:25:01 27.1 C 5.18 g/m*3 27.1 C 0 km/h
79 20-04-2011 15:37:02 27.7 C 5.35 g/m*3 27.7 C 0 km/h
80 20-04-2011 15:49:02 29.6 C 5.94 g/m*3 29.6 C 0 km/h
81 20-04-2011 16:01:02 29.2 C 5.81 g/m*3 29.2 C 0 km/h
82 20-04-2011 16:13:02 28.2 C 5.5 g/m*3 28.2 C 0 km/h
83 20-04-2011 16:25:02 29.3 C 5.84 g/m*3 29.3 C 0 km/h
84 20-04-2011 16:37:02 29.6 C 5.94 g/m*3 29.6 C 0 km/h
85 20-04-2011 16:49:02 30.2 C 6.13 g/m*3 30.2 C 0 km/h
86 20-04-2011 17:01:02 30.7 C 6.3 g/m*3 30.7 C 0 km/h
87 20-04-2011 17:13:02 30 C 6.06 g/m*3 30 C 0 km/h
88 20-04-2011 17:25:02 30 C 6.06 g/m*3 30 C 0 km/h
89 20-04-2011 17:37:02 29.7 C 5.97 g/m*3 29.7 C 0 km/h
90 20-04-2011 17:49:02 30 C 6.06 g/m*3 30 C 0 km/h
91 20-04-2011 18:01:02 28.6 C 5.62 g/m*3 28.6 C 0 km/h
92 20-04-2011 18:13:02 28.7 C 5.65 g/m*3 28.7 C 0 km/h
93 20-04-2011 18:25:01 26.4 C 4.98 g/m*3 26.4 C 0 km/h
94 20-04-2011 18:37:02 27.1 C 5.18 g/m*3 27.1 C 0 km/h
95 20-04-2011 18:49:02 27.3 C 5.23 g/m*3 27.3 C 0 km/h
96 20-04-2011 19:01:02 26.9 C 5.12 g/m*3 26.9 C 0 km/h
97 20-04-2011 19:13:02 25.5 C 4.73 g/m*3 25.5 C 0 km/h
98 20-04-2011 19:25:02 22.3 C 4.54 g/m*3 22.3 C 0 km/h
99 20-04-2011 19:37:02 19.2 C 5.44 g/m*3 19.2 C 0 km/h
100 20-04-2011 19:49:02 18.3 C 5.47 g/m*3 18.3 C 0 km/h
Sensor: Nr:Datum:Temp:Abs-Feuchte:Windchill:Wind:
Aussen-T/F 101 20-04-2011 20:01:02 17.3 C 5.3 g/m*3 17.3 C 0 km/h
102 20-04-2011 20:13:02 16.5 C 5.06 g/m*3 16.5 C 0 km/h
103 20-04-2011 20:25:02 15.7 C 4.95 g/m*3 15.7 C 0 km/h
104 20-04-2011 20:37:02 15.4 C 4.86 g/m*3 15.4 C 0 km/h
105 20-04-2011 20:49:01 14.6 C 4.76 g/m*3 14.6 C 0 km/h
106 20-04-2011 21:01:01 14.4 C 4.94 g/m*3 14.4 C 0 km/h
107 20-04-2011 21:13:02 13.8 C 5 g/m*3 13.8 C 0 km/h
108 20-04-2011 21:25:01 13.3 C 4.97 g/m*3 13.3 C 0 km/h
109 20-04-2011 21:37:01 12.8 C 5.15 g/m*3 12.8 C 0 km/h
110 20-04-2011 21:49:01 12.2 C 5.07 g/m*3 12.2 C 0 km/h
111 20-04-2011 22:01:02 12 C 5.12 g/m*3 12 C 0 km/h
112 20-04-2011 22:13:02 11.9 C 4.98 g/m*3 11.9 C 0 km/h
113 20-04-2011 22:25:01 11.7 C 5.12 g/m*3 11.7 C 0 km/h
114 20-04-2011 22:38:04 11.1 C 5.04 g/m*3 11.1 C 0 km/h
115 20-04-2011 22:50:04 10.7 C 5.21 g/m*3 10.7 C 0 km/h
116 20-04-2011 23:02:04 10.3 C 5.17 g/m*3 10.3 C 0 km/h
117 20-04-2011 23:14:04 9.9 C 5.32 g/m*3 9.9 C 0 km/h
118 20-04-2011 23:26:04 9.5 C 5.28 g/m*3 9.5 C 0 km/h
119 20-04-2011 23:38:04 9.3 C 5.21 g/m*3 9.3 C 0 km/h
120 20-04-2011 23:50:04 9.2 C 5.09 g/m*3 9.2 C 0 km/h

Legende:
   Min
   Max


Maximal/Minimal-Werte vom 20.04.2011 - 20.04.2011

Sensor Min Max Avg
Temp
(Aussen-T/F)
3 °C
20-04-2011  06:13:05
30.7 °C
20-04-2011  17:01:02
13.55 °C
Abs-Feuchte
(Aussen-T/F)
3.62 g/m*3
20-04-2011  13:25:02
7.15 g/m*3
20-04-2011  11:01:02
5.45 g/m*3
Windchill
(Aussen-T/F)
3 C
20-04-2011  06:13:05
30.7 C
20-04-2011  17:01:02
13.44 C

Die Daten stammen von einer Davis Vantage Pro 2 Wetter-Station und werden unter Linux mit der Software wview2wettercgi und aufbereitet. Alle Angaben erfolgen ohne Gewähr für ihre Vollständigkeit oder Richtigkeit.
Kontakt: Rainer Krienke krienke@uni-koblenz.de . Meine Webseiten an der Uni Koblenz oder privat.
Version: $Revision: 0.78 $